createdAt,value
2023-03-06T00:05:14.161Z,9.47
2023-03-06T00:11:15.648Z,7.68
2023-03-06T00:17:17.111Z,7.82
2023-03-06T00:23:18.799Z,8.50
2023-03-06T00:29:20.290Z,8.63
2023-03-06T00:35:21.949Z,10.33
2023-03-06T00:41:23.520Z,9.63
2023-03-06T00:47:25.088Z,9.02
2023-03-06T00:53:26.824Z,9.40
2023-03-06T00:59:28.295Z,7.45
2023-03-06T01:05:30.115Z,9.90
2023-03-06T01:11:31.673Z,10.23
2023-03-06T01:17:33.182Z,10.63
2023-03-06T01:23:34.706Z,9.80
2023-03-06T01:29:36.216Z,12.75
2023-03-06T01:35:38.575Z,11.50
2023-03-06T01:41:41.095Z,10.27
2023-03-06T01:47:42.599Z,10.75
2023-03-06T01:53:44.172Z,9.83
2023-03-06T01:59:47.847Z,10.48
2023-03-06T02:05:49.461Z,11.67
2023-03-06T02:11:51.055Z,9.40
2023-03-06T02:17:52.689Z,8.43
2023-03-06T02:24:12.901Z,8.60
2023-03-06T02:30:16.083Z,9.68
2023-03-06T02:36:17.720Z,10.43
2023-03-06T02:42:20.465Z,8.75
2023-03-06T02:48:22.140Z,10.38
2023-03-06T02:54:23.745Z,11.00
2023-03-06T03:00:25.696Z,8.02
2023-03-06T03:06:27.447Z,9.30
2023-03-06T03:12:29.229Z,12.63
2023-03-06T03:18:31.042Z,9.23
2023-03-06T03:24:33.035Z,9.57
2023-03-06T03:30:35.434Z,10.95
2023-03-06T03:36:37.426Z,10.90
2023-03-06T03:42:40.939Z,11.77
2023-03-06T03:48:42.593Z,12.10
2023-03-06T03:54:44.799Z,11.87
2023-03-06T04:00:47.132Z,13.23
2023-03-06T04:06:49.984Z,14.07
2023-03-06T04:12:53.405Z,14.52
2023-03-06T04:18:55.431Z,12.10
2023-03-06T04:24:57.357Z,11.63
2023-03-06T04:30:59.775Z,11.30
2023-03-06T04:37:01.270Z,15.50
2023-03-06T04:43:03.537Z,12.02
2023-03-06T04:49:05.040Z,14.60
2023-03-06T04:55:10.634Z,11.37
2023-03-06T05:01:12.206Z,13.70
2023-03-06T05:07:13.669Z,11.43
2023-03-06T05:13:15.122Z,12.65
2023-03-06T05:19:16.710Z,13.55
2023-03-06T05:25:18.505Z,14.63
2023-03-06T05:31:20.035Z,12.75
2023-03-06T05:37:22.968Z,18.00
2023-03-06T05:43:25.209Z,12.68
2023-03-06T05:49:30.942Z,13.25
2023-03-06T05:55:32.395Z,14.77
2023-03-06T06:01:33.861Z,14.40
2023-03-06T06:07:35.772Z,15.13
2023-03-06T06:13:38.154Z,12.85
2023-03-06T06:19:39.602Z,13.38
2023-03-06T06:25:41.073Z,18.00
2023-03-06T06:31:42.670Z,12.65
2023-03-06T06:37:44.110Z,13.43
2023-03-06T06:43:45.659Z,13.70
2023-03-06T06:49:53.817Z,12.63
2023-03-06T06:55:55.398Z,15.87
2023-03-06T07:01:56.847Z,11.73
2023-03-06T07:07:58.300Z,14.10
2023-03-06T07:13:59.840Z,11.40
2023-03-06T07:20:01.429Z,12.43
2023-03-06T07:26:03.244Z,12.53
2023-03-06T07:32:04.864Z,13.32
2023-03-06T07:38:06.362Z,16.63
2023-03-06T07:44:07.843Z,15.27
2023-03-06T07:50:09.703Z,15.85
2023-03-06T07:56:11.856Z,17.73
2023-03-06T08:02:13.389Z,20.48
2023-03-06T08:08:14.869Z,16.03
2023-03-06T08:14:16.392Z,16.40
2023-03-06T08:20:18.463Z,18.33
2023-03-06T08:26:21.143Z,18.73
2023-03-06T08:32:22.712Z,17.52
2023-03-06T08:38:24.317Z,15.50
2023-03-06T08:44:25.771Z,20.60
2023-03-06T08:50:27.249Z,16.95
2023-03-06T08:56:30.287Z,16.83
2023-03-06T09:02:32.100Z,16.50
2023-03-06T09:08:33.612Z,17.00
2023-03-06T09:14:35.055Z,18.00
2023-03-06T09:20:36.536Z,19.33
2023-03-06T09:26:46.296Z,19.07
2023-03-06T09:32:48.627Z,18.63
2023-03-06T09:38:50.246Z,17.77
2023-03-06T09:44:53.934Z,15.00
2023-03-06T09:51:01.044Z,17.27
2023-03-06T09:57:02.654Z,15.63
2023-03-06T10:03:22.946Z,17.98
2023-03-06T10:09:27.680Z,21.53
2023-03-06T10:15:33.292Z,20.77
2023-03-06T10:21:44.073Z,20.83
2023-03-06T10:27:50.169Z,24.23
2023-03-06T10:33:58.811Z,25.00
2023-03-06T10:40:12.972Z,25.33
2023-03-06T10:46:25.951Z,26.27
2023-03-06T10:52:34.983Z,25.80
2023-03-06T10:58:36.452Z,23.00
2023-03-06T11:04:39.492Z,24.02
2023-03-06T11:10:54.421Z,23.90
2023-03-06T11:16:55.867Z,24.23
2023-03-06T11:23:08.160Z,25.85
2023-03-06T11:29:40.544Z,23.67
2023-03-06T11:35:51.688Z,28.40
2023-03-06T11:42:05.418Z,25.87
2023-03-06T11:48:13.623Z,23.85
2023-03-06T11:54:15.151Z,26.23
2023-03-06T12:00:22.650Z,24.30
2023-03-06T12:06:36.342Z,21.02
2023-03-06T12:12:49.941Z,20.83
2023-03-06T12:19:04.678Z,16.08
2023-03-06T12:25:27.886Z,20.05
2023-03-06T12:31:41.108Z,19.40
2023-03-06T12:37:48.625Z,19.73
2023-03-06T12:43:50.146Z,15.63
2023-03-06T12:49:56.866Z,15.07
2023-03-06T12:55:59.601Z,15.93
2023-03-06T13:02:06.374Z,10.13
2023-03-06T13:08:16.997Z,12.25
2023-03-06T13:14:26.413Z,11.80
2023-03-06T13:20:30.068Z,13.90
2023-03-06T13:26:31.538Z,15.90
2023-03-06T13:32:34.422Z,13.60
2023-03-06T13:38:37.277Z,15.95
2023-03-06T13:44:42.659Z,18.77
2023-03-06T13:50:45.840Z,19.33
2023-03-06T13:56:57.092Z,19.85
2023-03-06T14:03:08.766Z,17.60
2023-03-06T14:09:27.889Z,18.55
2023-03-06T14:15:37.136Z,17.23
2023-03-06T14:21:49.632Z,17.35
2023-03-06T14:27:53.552Z,15.27
2023-03-06T14:33:58.447Z,16.00
2023-03-06T14:40:00.074Z,17.75
2023-03-06T14:46:06.471Z,18.50
2023-03-06T14:52:17.478Z,16.92
2023-03-06T14:58:21.531Z,17.92
2023-03-06T15:04:28.443Z,20.50
2023-03-06T15:10:32.179Z,19.20
2023-03-06T15:16:33.766Z,18.33
2023-03-06T15:22:40.013Z,18.80
2023-03-06T15:28:41.592Z,19.45
2023-03-06T15:34:43.112Z,20.53
2023-03-06T15:40:53.813Z,20.63
2023-03-06T15:47:07.689Z,17.60
2023-03-06T15:53:09.835Z,16.13
2023-03-06T15:59:22.035Z,14.85
2023-03-06T16:05:23.698Z,13.70
2023-03-06T16:11:32.499Z,12.57
2023-03-06T16:17:36.987Z,12.17
2023-03-06T16:23:39.133Z,12.05
2023-03-06T16:29:40.676Z,12.98
2023-03-06T16:35:44.569Z,13.93
2023-03-06T16:41:46.195Z,13.80
2023-03-06T16:47:48.178Z,11.83
2023-03-06T16:53:50.887Z,10.68
2023-03-06T16:59:52.447Z,14.18
2023-03-06T17:05:53.964Z,13.53
2023-03-06T17:11:55.432Z,13.80
2023-03-06T17:17:57.833Z,15.77
2023-03-06T17:24:02.315Z,16.77
2023-03-06T17:30:04.746Z,16.17
2023-03-06T17:36:06.442Z,15.90
2023-03-06T17:42:08.745Z,13.75
2023-03-06T17:48:10.205Z,11.70
2023-03-06T17:54:11.711Z,13.70
2023-03-06T18:00:13.360Z,12.32
2023-03-06T18:06:20.195Z,12.80
2023-03-06T18:12:21.732Z,12.27
2023-03-06T18:18:24.061Z,15.17
2023-03-06T18:24:25.601Z,11.70
2023-03-06T18:30:27.299Z,12.10
2023-03-06T18:36:30.107Z,12.73
2023-03-06T18:42:31.763Z,12.48
2023-03-06T18:48:33.644Z,11.87
2023-03-06T18:54:35.463Z,13.95
2023-03-06T19:00:37.441Z,14.75
2023-03-06T19:06:40.090Z,14.70
2023-03-06T19:12:41.953Z,13.55
2023-03-06T19:18:44.019Z,14.27
2023-03-06T19:24:46.955Z,14.43
2023-03-06T19:30:48.790Z,16.35
2023-03-06T19:36:51.129Z,14.97
2023-03-06T19:42:52.987Z,17.02
2023-03-06T19:48:56.249Z,16.37
2023-03-06T19:54:58.301Z,15.23
2023-03-06T20:01:29.894Z,12.85
2023-03-06T20:07:32.075Z,15.20
2023-03-06T20:13:34.107Z,12.77
2023-03-06T20:19:36.561Z,13.40
2023-03-06T20:25:38.602Z,16.85
2023-03-06T20:31:40.837Z,16.93
2023-03-06T20:37:42.570Z,17.23
2023-03-06T20:43:44.471Z,26.08
2023-03-06T20:49:46.112Z,33.40
2023-03-06T20:55:49.944Z,28.33
2023-03-06T21:01:51.689Z,20.10
2023-03-06T21:07:53.321Z,19.67
2023-03-06T21:13:54.919Z,18.33
2023-03-06T21:19:57.548Z,19.40
2023-03-06T21:25:59.272Z,17.92
2023-03-06T21:32:00.772Z,15.23
2023-03-06T21:38:02.230Z,19.07
2023-03-06T21:44:05.246Z,15.98
2023-03-06T21:50:08.495Z,17.07
2023-03-06T21:56:10.664Z,18.88
2023-03-06T22:02:12.171Z,21.83
2023-03-06T22:08:13.903Z,17.50
2023-03-06T22:14:15.399Z,17.35
2023-03-06T22:20:17.113Z,19.77
2023-03-06T22:26:18.704Z,18.92
2023-03-06T22:32:20.550Z,19.73
2023-03-06T22:38:22.093Z,20.33
2023-03-06T22:44:23.562Z,19.98
2023-03-06T22:50:24.958Z,19.90
2023-03-06T22:56:26.390Z,18.48
2023-03-06T23:02:32.055Z,19.40
2023-03-06T23:08:33.651Z,20.77
2023-03-06T23:14:35.103Z,19.23
2023-03-06T23:20:55.533Z,17.50
2023-03-06T23:27:15.633Z,21.48
2023-03-06T23:33:17.321Z,19.92
2023-03-06T23:39:18.868Z,19.80
2023-03-06T23:45:20.622Z,19.80
2023-03-06T23:51:22.533Z,21.80
2023-03-06T23:57:23.969Z,22.10
